sensor_id;sensor_type;location;lat;lon;timestamp;temperature;humidity
8226;DHT22;4154;48.810;9.012;2024-02-15T00:00:28;11.20;99.90
8226;DHT22;4154;48.810;9.012;2024-02-15T00:02:53;11.20;99.90
8226;DHT22;4154;48.810;9.012;2024-02-15T00:05:19;11.20;99.90
8226;DHT22;4154;48.810;9.012;2024-02-15T00:07:45;11.10;99.90
8226;DHT22;4154;48.810;9.012;2024-02-15T00:10:13;11.10;99.90
8226;DHT22;4154;48.810;9.012;2024-02-15T00:12:40;11.10;99.90
8226;DHT22;4154;48.810;9.012;2024-02-15T00:15:05;11.10;99.90
8226;DHT22;4154;48.810;9.012;2024-02-15T00:17:31;11.30;99.90
8226;DHT22;4154;48.810;9.012;2024-02-15T00:19:58;11.10;99.90
8226;DHT22;4154;48.810;9.012;2024-02-15T00:22:25;11.20;99.90
8226;DHT22;4154;48.810;9.012;2024-02-15T00:24:50;11.10;99.90
8226;DHT22;4154;48.810;9.012;2024-02-15T00:27:16;11.10;99.90
8226;DHT22;4154;48.810;9.012;2024-02-15T00:29:42;11.10;99.90
8226;DHT22;4154;48.810;9.012;2024-02-15T00:32:09;11.10;99.90
8226;DHT22;4154;48.810;9.012;2024-02-15T00:34:36;11.10;99.90
8226;DHT22;4154;48.810;9.012;2024-02-15T00:37:04;11.10;99.90
8226;DHT22;4154;48.810;9.012;2024-02-15T00:39:30;11.10;99.90
8226;DHT22;4154;48.810;9.012;2024-02-15T00:41:57;11.10;99.90
8226;DHT22;4154;48.810;9.012;2024-02-15T00:44:28;11.00;99.90
8226;DHT22;4154;48.810;9.012;2024-02-15T00:46:53;11.10;99.90
8226;DHT22;4154;48.810;9.012;2024-02-15T00:49:19;11.10;99.90
8226;DHT22;4154;48.810;9.012;2024-02-15T00:51:45;11.10;99.90
8226;DHT22;4154;48.810;9.012;2024-02-15T00:54:12;11.10;99.90
8226;DHT22;4154;48.810;9.012;2024-02-15T00:56:37;11.10;99.90
8226;DHT22;4154;48.810;9.012;2024-02-15T00:59:03;11.10;99.90
8226;DHT22;4154;48.810;9.012;2024-02-15T01:01:30;11.10;99.90
8226;DHT22;4154;48.810;9.012;2024-02-15T01:03:56;11.10;99.90
8226;DHT22;4154;48.810;9.012;2024-02-15T01:06:22;11.00;99.90
8226;DHT22;4154;48.810;9.012;2024-02-15T01:08:47;11.00;99.90
8226;DHT22;4154;48.810;9.012;2024-02-15T01:11:13;11.00;99.90
8226;DHT22;4154;48.810;9.012;2024-02-15T01:13:39;10.90;99.90
8226;DHT22;4154;48.810;9.012;2024-02-15T01:16:05;10.90;99.90
8226;DHT22;4154;48.810;9.012;2024-02-15T01:18:32;10.80;99.90
8226;DHT22;4154;48.810;9.012;2024-02-15T01:20:58;10.80;99.90
8226;DHT22;4154;48.810;9.012;2024-02-15T01:23:24;10.80;99.90
8226;DHT22;4154;48.810;9.012;2024-02-15T01:25:51;10.80;99.90
8226;DHT22;4154;48.810;9.012;2024-02-15T01:28:17;10.70;99.90
8226;DHT22;4154;48.810;9.012;2024-02-15T01:30:43;10.70;99.90
8226;DHT22;4154;48.810;9.012;2024-02-15T01:33:09;10.60;99.90
8226;DHT22;4154;48.810;9.012;2024-02-15T01:35:36;10.60;99.90
8226;DHT22;4154;48.810;9.012;2024-02-15T01:38:03;10.60;99.90
8226;DHT22;4154;48.810;9.012;2024-02-15T01:40:29;10.50;99.90
8226;DHT22;4154;48.810;9.012;2024-02-15T01:42:55;10.40;99.90
8226;DHT22;4154;48.810;9.012;2024-02-15T01:45:21;10.40;99.90
8226;DHT22;4154;48.810;9.012;2024-02-15T01:50:14;10.30;99.90
8226;DHT22;4154;48.810;9.012;2024-02-15T01:52:43;10.40;99.90
8226;DHT22;4154;48.810;9.012;2024-02-15T01:55:13;10.30;99.90
8226;DHT22;4154;48.810;9.012;2024-02-15T01:57:43;10.30;99.90
8226;DHT22;4154;48.810;9.012;2024-02-15T02:00:13;10.20;99.90
8226;DHT22;4154;48.810;9.012;2024-02-15T02:02:42;10.20;99.90
8226;DHT22;4154;48.810;9.012;2024-02-15T02:05:09;10.20;99.90
8226;DHT22;4154;48.810;9.012;2024-02-15T02:07:35;10.70;99.90
8226;DHT22;4154;48.810;9.012;2024-02-15T02:10:02;10.20;99.90
8226;DHT22;4154;48.810;9.012;2024-02-15T02:12:28;10.10;99.90
8226;DHT22;4154;48.810;9.012;2024-02-15T02:14:54;10.10;99.90
8226;DHT22;4154;48.810;9.012;2024-02-15T02:17:20;10.10;99.90
8226;DHT22;4154;48.810;9.012;2024-02-15T02:19:46;10.10;99.90
8226;DHT22;4154;48.810;9.012;2024-02-15T02:22:14;10.10;99.90
8226;DHT22;4154;48.810;9.012;2024-02-15T02:25:07;10.10;99.90
8226;DHT22;4154;48.810;9.012;2024-02-15T02:27:34;10.00;99.90
8226;DHT22;4154;48.810;9.012;2024-02-15T02:30:05;10.00;99.90
8226;DHT22;4154;48.810;9.012;2024-02-15T02:32:42;10.00;99.90
8226;DHT22;4154;48.810;9.012;2024-02-15T02:35:08;10.00;99.90
8226;DHT22;4154;48.810;9.012;2024-02-15T02:37:37;9.80;99.90
8226;DHT22;4154;48.810;9.012;2024-02-15T02:40:05;9.90;99.90
8226;DHT22;4154;48.810;9.012;2024-02-15T02:42:35;9.80;99.90
8226;DHT22;4154;48.810;9.012;2024-02-15T02:45:01;9.80;99.90
8226;DHT22;4154;48.810;9.012;2024-02-15T02:47:27;10.00;99.90
8226;DHT22;4154;48.810;9.012;2024-02-15T02:49:53;9.70;99.90
8226;DHT22;4154;48.810;9.012;2024-02-15T02:52:18;9.70;99.90
8226;DHT22;4154;48.810;9.012;2024-02-15T02:54:44;9.70;99.90
8226;DHT22;4154;48.810;9.012;2024-02-15T02:57:10;9.60;99.90
8226;DHT22;4154;48.810;9.012;2024-02-15T02:59:35;9.60;99.90
8226;DHT22;4154;48.810;9.012;2024-02-15T03:02:02;9.60;99.90
8226;DHT22;4154;48.810;9.012;2024-02-15T03:04:29;9.50;99.90
8226;DHT22;4154;48.810;9.012;2024-02-15T03:06:54;9.50;99.90
8226;DHT22;4154;48.810;9.012;2024-02-15T03:09:22;9.50;99.90
8226;DHT22;4154;48.810;9.012;2024-02-15T03:11:48;9.50;99.90
8226;DHT22;4154;48.810;9.012;2024-02-15T03:14:15;9.40;99.90
8226;DHT22;4154;48.810;9.012;2024-02-15T03:16:40;9.40;99.90
8226;DHT22;4154;48.810;9.012;2024-02-15T03:19:06;9.40;99.90
8226;DHT22;4154;48.810;9.012;2024-02-15T03:21:34;9.30;99.90
8226;DHT22;4154;48.810;9.012;2024-02-15T03:24:00;9.30;99.90
8226;DHT22;4154;48.810;9.012;2024-02-15T03:26:32;9.20;99.90
8226;DHT22;4154;48.810;9.012;2024-02-15T03:31:28;9.10;99.90
8226;DHT22;4154;48.810;9.012;2024-02-15T03:33:57;9.10;99.90
8226;DHT22;4154;48.810;9.012;2024-02-15T03:36:24;9.10;99.90
8226;DHT22;4154;48.810;9.012;2024-02-15T03:38:50;9.10;99.90
8226;DHT22;4154;48.810;9.012;2024-02-15T03:41:18;9.10;99.90
8226;DHT22;4154;48.810;9.012;2024-02-15T03:43:43;9.10;99.90
8226;DHT22;4154;48.810;9.012;2024-02-15T03:46:09;9.10;99.90
8226;DHT22;4154;48.810;9.012;2024-02-15T03:48:37;9.10;99.90
8226;DHT22;4154;48.810;9.012;2024-02-15T03:51:03;9.20;99.90
8226;DHT22;4154;48.810;9.012;2024-02-15T03:53:29;9.20;99.90
8226;DHT22;4154;48.810;9.012;2024-02-15T03:55:56;9.20;99.90
8226;DHT22;4154;48.810;9.012;2024-02-15T03:58:22;9.20;99.90
8226;DHT22;4154;48.810;9.012;2024-02-15T04:00:48;9.30;99.90
8226;DHT22;4154;48.810;9.012;2024-02-15T04:03:13;9.30;99.90
8226;DHT22;4154;48.810;9.012;2024-02-15T04:08:05;9.30;99.90
8226;DHT22;4154;48.810;9.012;2024-02-15T04:10:31;9.40;99.90
8226;DHT22;4154;48.810;9.012;2024-02-15T04:12:57;9.40;99.90
8226;DHT22;4154;48.810;9.012;2024-02-15T04:15:23;9.40;99.90
8226;DHT22;4154;48.810;9.012;2024-02-15T04:20:21;9.40;99.90
8226;DHT22;4154;48.810;9.012;2024-02-15T04:22:47;9.40;99.90
8226;DHT22;4154;48.810;9.012;2024-02-15T04:25:15;9.40;99.90
8226;DHT22;4154;48.810;9.012;2024-02-15T04:27:45;9.30;99.90
8226;DHT22;4154;48.810;9.012;2024-02-15T04:30:14;9.40;99.90
8226;DHT22;4154;48.810;9.012;2024-02-15T04:32:41;9.40;99.90
8226;DHT22;4154;48.810;9.012;2024-02-15T04:35:06;9.40;99.90
8226;DHT22;4154;48.810;9.012;2024-02-15T04:37:32;9.40;99.90
8226;DHT22;4154;48.810;9.012;2024-02-15T04:40:00;9.40;99.90
8226;DHT22;4154;48.810;9.012;2024-02-15T04:42:33;9.40;99.90
8226;DHT22;4154;48.810;9.012;2024-02-15T04:45:00;9.50;99.90
8226;DHT22;4154;48.810;9.012;2024-02-15T04:47:26;9.30;99.90
8226;DHT22;4154;48.810;9.012;2024-02-15T04:49:51;9.50;99.90
8226;DHT22;4154;48.810;9.012;2024-02-15T04:52:17;9.50;99.90
8226;DHT22;4154;48.810;9.012;2024-02-15T04:54:43;9.50;99.90
8226;DHT22;4154;48.810;9.012;2024-02-15T04:57:09;9.50;99.90
8226;DHT22;4154;48.810;9.012;2024-02-15T04:59:37;9.50;99.90
8226;DHT22;4154;48.810;9.012;2024-02-15T05:02:03;9.60;99.90
8226;DHT22;4154;48.810;9.012;2024-02-15T05:04:28;9.60;99.90
8226;DHT22;4154;48.810;9.012;2024-02-15T05:06:54;9.60;99.90
8226;DHT22;4154;48.810;9.012;2024-02-15T05:09:21;9.60;99.90
8226;DHT22;4154;48.810;9.012;2024-02-15T05:11:48;9.60;99.90
8226;DHT22;4154;48.810;9.012;2024-02-15T05:14:14;9.60;99.90
8226;DHT22;4154;48.810;9.012;2024-02-15T05:16:47;9.70;99.90
8226;DHT22;4154;48.810;9.012;2024-02-15T05:19:15;9.60;99.90
8226;DHT22;4154;48.810;9.012;2024-02-15T05:21:42;9.60;99.90
8226;DHT22;4154;48.810;9.012;2024-02-15T05:24:13;9.60;99.90
8226;DHT22;4154;48.810;9.012;2024-02-15T05:26:41;9.60;99.90
8226;DHT22;4154;48.810;9.012;2024-02-15T05:29:16;9.60;99.90
8226;DHT22;4154;48.810;9.012;2024-02-15T05:31:42;9.70;99.90
8226;DHT22;4154;48.810;9.012;2024-02-15T05:34:09;9.70;99.90
8226;DHT22;4154;48.810;9.012;2024-02-15T05:36:37;9.60;99.90
8226;DHT22;4154;48.810;9.012;2024-02-15T05:39:04;9.60;99.90
8226;DHT22;4154;48.810;9.012;2024-02-15T05:41:30;9.60;99.90
8226;DHT22;4154;48.810;9.012;2024-02-15T05:43:58;9.70;99.90
8226;DHT22;4154;48.810;9.012;2024-02-15T05:46:24;9.70;99.90
8226;DHT22;4154;48.810;9.012;2024-02-15T05:48:50;9.70;99.90
8226;DHT22;4154;48.810;9.012;2024-02-15T05:51:19;9.70;99.90
8226;DHT22;4154;48.810;9.012;2024-02-15T05:53:45;9.70;99.90
8226;DHT22;4154;48.810;9.012;2024-02-15T05:56:11;9.70;99.90
8226;DHT22;4154;48.810;9.012;2024-02-15T06:01:05;9.70;99.90
8226;DHT22;4154;48.810;9.012;2024-02-15T06:03:33;9.70;99.90
8226;DHT22;4154;48.810;9.012;2024-02-15T06:08:31;9.80;99.90
8226;DHT22;4154;48.810;9.012;2024-02-15T06:10:58;9.70;99.90
8226;DHT22;4154;48.810;9.012;2024-02-15T06:13:25;9.80;99.90
8226;DHT22;4154;48.810;9.012;2024-02-15T06:15:52;9.80;99.90
8226;DHT22;4154;48.810;9.012;2024-02-15T06:18:19;9.80;99.90
8226;DHT22;4154;48.810;9.012;2024-02-15T06:20:53;9.90;99.90
8226;DHT22;4154;48.810;9.012;2024-02-15T06:23:20;9.90;99.90
8226;DHT22;4154;48.810;9.012;2024-02-15T06:25:51;9.90;99.90
8226;DHT22;4154;48.810;9.012;2024-02-15T06:28:19;9.90;99.90
8226;DHT22;4154;48.810;9.012;2024-02-15T06:31:07;9.90;99.90
8226;DHT22;4154;48.810;9.012;2024-02-15T06:33:52;9.90;99.90
8226;DHT22;4154;48.810;9.012;2024-02-15T06:36:47;9.90;99.90
8226;DHT22;4154;48.810;9.012;2024-02-15T06:39:32;9.90;99.90
8226;DHT22;4154;48.810;9.012;2024-02-15T06:42:11;9.90;99.90
8226;DHT22;4154;48.810;9.012;2024-02-15T06:44:42;9.90;99.90
8226;DHT22;4154;48.810;9.012;2024-02-15T06:47:08;9.90;99.90
8226;DHT22;4154;48.810;9.012;2024-02-15T06:49:40;9.90;99.90
8226;DHT22;4154;48.810;9.012;2024-02-15T06:52:09;9.90;99.90
8226;DHT22;4154;48.810;9.012;2024-02-15T06:57:06;9.90;99.90
8226;DHT22;4154;48.810;9.012;2024-02-15T06:59:33;9.90;99.90
8226;DHT22;4154;48.810;9.012;2024-02-15T07:01:59;9.80;99.90
8226;DHT22;4154;48.810;9.012;2024-02-15T07:04:30;9.80;99.90
8226;DHT22;4154;48.810;9.012;2024-02-15T07:06:57;9.80;99.90
8226;DHT22;4154;48.810;9.012;2024-02-15T07:09:25;9.80;99.90
8226;DHT22;4154;48.810;9.012;2024-02-15T07:11:51;9.80;99.90
8226;DHT22;4154;48.810;9.012;2024-02-15T07:14:17;9.80;99.90
8226;DHT22;4154;48.810;9.012;2024-02-15T07:16:47;9.80;99.90
8226;DHT22;4154;48.810;9.012;2024-02-15T07:19:14;9.80;99.90
8226;DHT22;4154;48.810;9.012;2024-02-15T07:21:41;9.80;99.90
8226;DHT22;4154;48.810;9.012;2024-02-15T07:24:07;9.80;99.90
8226;DHT22;4154;48.810;9.012;2024-02-15T07:26:33;9.80;99.90
8226;DHT22;4154;48.810;9.012;2024-02-15T07:29:00;9.90;99.90
8226;DHT22;4154;48.810;9.012;2024-02-15T07:31:29;9.90;99.90
8226;DHT22;4154;48.810;9.012;2024-02-15T07:33:55;9.90;99.90
8226;DHT22;4154;48.810;9.012;2024-02-15T07:36:22;9.90;99.90
8226;DHT22;4154;48.810;9.012;2024-02-15T07:38:49;10.00;99.90
8226;DHT22;4154;48.810;9.012;2024-02-15T07:41:17;10.00;99.90
8226;DHT22;4154;48.810;9.012;2024-02-15T07:43:50;10.10;99.90
8226;DHT22;4154;48.810;9.012;2024-02-15T07:46:16;10.10;99.90
8226;DHT22;4154;48.810;9.012;2024-02-15T07:48:45;10.20;99.90
8226;DHT22;4154;48.810;9.012;2024-02-15T07:51:15;10.20;99.90
8226;DHT22;4154;48.810;9.012;2024-02-15T07:53:43;10.30;99.90
8226;DHT22;4154;48.810;9.012;2024-02-15T07:56:10;10.30;99.90
8226;DHT22;4154;48.810;9.012;2024-02-15T07:58:40;10.30;99.90
8226;DHT22;4154;48.810;9.012;2024-02-15T08:01:13;10.40;99.90
8226;DHT22;4154;48.810;9.012;2024-02-15T08:03:39;10.40;99.90
8226;DHT22;4154;48.810;9.012;2024-02-15T08:06:12;10.50;99.90
8226;DHT22;4154;48.810;9.012;2024-02-15T08:08:47;10.50;99.90
8226;DHT22;4154;48.810;9.012;2024-02-15T08:11:16;10.60;99.90
8226;DHT22;4154;48.810;9.012;2024-02-15T08:13:45;10.60;99.90
8226;DHT22;4154;48.810;9.012;2024-02-15T08:16:15;10.70;99.90
8226;DHT22;4154;48.810;9.012;2024-02-15T08:21:11;10.80;99.90
8226;DHT22;4154;48.810;9.012;2024-02-15T08:23:37;10.80;99.90
8226;DHT22;4154;48.810;9.012;2024-02-15T08:26:03;10.90;99.90
8226;DHT22;4154;48.810;9.012;2024-02-15T08:28:30;10.90;99.90
8226;DHT22;4154;48.810;9.012;2024-02-15T08:30:56;11.00;99.90
8226;DHT22;4154;48.810;9.012;2024-02-15T08:33:22;11.00;99.90
8226;DHT22;4154;48.810;9.012;2024-02-15T08:35:49;11.00;99.90
8226;DHT22;4154;48.810;9.012;2024-02-15T08:38:14;11.10;99.90
8226;DHT22;4154;48.810;9.012;2024-02-15T08:40:40;11.10;99.90
8226;DHT22;4154;48.810;9.012;2024-02-15T08:43:06;11.20;99.90
8226;DHT22;4154;48.810;9.012;2024-02-15T08:45:31;11.10;99.90
8226;DHT22;4154;48.810;9.012;2024-02-15T08:47:57;11.20;99.90
8226;DHT22;4154;48.810;9.012;2024-02-15T08:50:22;11.20;99.90
8226;DHT22;4154;48.810;9.012;2024-02-15T08:52:48;11.20;99.90
8226;DHT22;4154;48.810;9.012;2024-02-15T08:55:15;11.20;99.90
8226;DHT22;4154;48.810;9.012;2024-02-15T08:57:42;11.20;99.90
8226;DHT22;4154;48.810;9.012;2024-02-15T09:00:10;11.30;99.90
8226;DHT22;4154;48.810;9.012;2024-02-15T09:02:44;11.40;99.90
8226;DHT22;4154;48.810;9.012;2024-02-15T09:05:10;11.40;99.90
8226;DHT22;4154;48.810;9.012;2024-02-15T09:07:43;11.40;99.90
8226;DHT22;4154;48.810;9.012;2024-02-15T09:10:10;11.50;99.90
8226;DHT22;4154;48.810;9.012;2024-02-15T09:12:37;11.50;99.90
8226;DHT22;4154;48.810;9.012;2024-02-15T09:15:06;11.60;99.90
8226;DHT22;4154;48.810;9.012;2024-02-15T09:17:33;11.60;99.90
8226;DHT22;4154;48.810;9.012;2024-02-15T09:20:07;11.70;99.90
8226;DHT22;4154;48.810;9.012;2024-02-15T09:22:34;11.70;99.90
8226;DHT22;4154;48.810;9.012;2024-02-15T09:25:02;11.70;99.90
8226;DHT22;4154;48.810;9.012;2024-02-15T09:27:28;11.80;99.90
8226;DHT22;4154;48.810;9.012;2024-02-15T09:29:53;11.70;99.90
8226;DHT22;4154;48.810;9.012;2024-02-15T09:32:21;11.80;99.90
8226;DHT22;4154;48.810;9.012;2024-02-15T09:34:47;11.90;99.90
8226;DHT22;4154;48.810;9.012;2024-02-15T09:37:14;11.90;99.90
8226;DHT22;4154;48.810;9.012;2024-02-15T09:39:40;11.90;99.90
8226;DHT22;4154;48.810;9.012;2024-02-15T09:42:06;11.90;99.90
8226;DHT22;4154;48.810;9.012;2024-02-15T09:44:32;11.90;99.90
8226;DHT22;4154;48.810;9.012;2024-02-15T09:47:05;12.00;99.90
8226;DHT22;4154;48.810;9.012;2024-02-15T09:49:38;12.10;99.90
8226;DHT22;4154;48.810;9.012;2024-02-15T09:52:08;12.10;99.70
8226;DHT22;4154;48.810;9.012;2024-02-15T09:54:42;12.10;99.70
8226;DHT22;4154;48.810;9.012;2024-02-15T09:57:09;12.00;99.70
8226;DHT22;4154;48.810;9.012;2024-02-15T09:59:38;12.10;99.70
8226;DHT22;4154;48.810;9.012;2024-02-15T10:02:05;12.10;99.80
8226;DHT22;4154;48.810;9.012;2024-02-15T10:04:39;12.10;99.90
8226;DHT22;4154;48.810;9.012;2024-02-15T10:07:06;12.10;99.90
8226;DHT22;4154;48.810;9.012;2024-02-15T10:09:34;12.20;99.80
8226;DHT22;4154;48.810;9.012;2024-02-15T10:12:03;12.10;99.80
8226;DHT22;4154;48.810;9.012;2024-02-15T10:14:32;12.20;99.80
8226;DHT22;4154;48.810;9.012;2024-02-15T10:17:06;12.20;99.90
8226;DHT22;4154;48.810;9.012;2024-02-15T10:19:35;12.20;99.80
8226;DHT22;4154;48.810;9.012;2024-02-15T10:22:08;12.30;99.80
8226;DHT22;4154;48.810;9.012;2024-02-15T10:24:35;12.30;99.90
8226;DHT22;4154;48.810;9.012;2024-02-15T10:27:02;12.30;99.80
8226;DHT22;4154;48.810;9.012;2024-02-15T10:29:30;12.40;99.60
8226;DHT22;4154;48.810;9.012;2024-02-15T10:31:57;12.40;99.50
8226;DHT22;4154;48.810;9.012;2024-02-15T10:34:26;12.50;99.40
8226;DHT22;4154;48.810;9.012;2024-02-15T10:36:53;12.60;99.10
8226;DHT22;4154;48.810;9.012;2024-02-15T10:39:22;12.60;98.70
8226;DHT22;4154;48.810;9.012;2024-02-15T10:41:52;12.70;98.40
8226;DHT22;4154;48.810;9.012;2024-02-15T10:44:24;12.80;98.50
8226;DHT22;4154;48.810;9.012;2024-02-15T10:46:52;12.80;98.40
8226;DHT22;4154;48.810;9.012;2024-02-15T10:49:22;12.90;98.30
8226;DHT22;4154;48.810;9.012;2024-02-15T10:51:56;13.00;98.30
8226;DHT22;4154;48.810;9.012;2024-02-15T10:57:03;15.00;98.70
8226;DHT22;4154;48.810;9.012;2024-02-15T10:59:34;13.20;97.90
8226;DHT22;4154;48.810;9.012;2024-02-15T11:05:05;13.30;97.60
8226;DHT22;4154;48.810;9.012;2024-02-15T11:07:36;13.30;99.90
8226;DHT22;4154;48.810;9.012;2024-02-15T11:10:06;13.50;97.30
8226;DHT22;4154;48.810;9.012;2024-02-15T11:12:34;13.50;97.30
8226;DHT22;4154;48.810;9.012;2024-02-15T11:15:00;13.60;96.90
8226;DHT22;4154;48.810;9.012;2024-02-15T11:20:08;13.80;97.00
8226;DHT22;4154;48.810;9.012;2024-02-15T11:22:36;13.80;97.00
8226;DHT22;4154;48.810;9.012;2024-02-15T11:25:03;13.90;97.10
8226;DHT22;4154;48.810;9.012;2024-02-15T11:27:48;13.90;96.90
8226;DHT22;4154;48.810;9.012;2024-02-15T11:30:31;14.10;97.30
8226;DHT22;4154;48.810;9.012;2024-02-15T11:32:57;14.10;97.40
8226;DHT22;4154;48.810;9.012;2024-02-15T11:35:24;14.20;97.40
8226;DHT22;4154;48.810;9.012;2024-02-15T11:37:51;14.20;97.10
8226;DHT22;4154;48.810;9.012;2024-02-15T11:40:28;14.30;97.00
8226;DHT22;4154;48.810;9.012;2024-02-15T11:46:08;14.50;96.10
8226;DHT22;4154;48.810;9.012;2024-02-15T11:48:38;14.50;96.10
8226;DHT22;4154;48.810;9.012;2024-02-15T11:51:05;14.50;96.60
8226;DHT22;4154;48.810;9.012;2024-02-15T11:53:37;14.50;96.40
8226;DHT22;4154;48.810;9.012;2024-02-15T11:56:03;14.60;95.90
8226;DHT22;4154;48.810;9.012;2024-02-15T11:58:34;14.60;96.00
8226;DHT22;4154;48.810;9.012;2024-02-15T12:01:17;14.70;95.90
8226;DHT22;4154;48.810;9.012;2024-02-15T12:04:02;14.70;95.90
8226;DHT22;4154;48.810;9.012;2024-02-15T12:06:47;14.70;95.60
8226;DHT22;4154;48.810;9.012;2024-02-15T12:09:32;14.80;95.50
8226;DHT22;4154;48.810;9.012;2024-02-15T12:12:16;14.90;94.90
8226;DHT22;4154;48.810;9.012;2024-02-15T12:15:03;14.90;94.60
8226;DHT22;4154;48.810;9.012;2024-02-15T12:17:48;15.00;94.70
8226;DHT22;4154;48.810;9.012;2024-02-15T12:20:32;15.00;94.60
8226;DHT22;4154;48.810;9.012;2024-02-15T12:22:59;15.10;94.00
8226;DHT22;4154;48.810;9.012;2024-02-15T12:25:28;15.10;94.00
8226;DHT22;4154;48.810;9.012;2024-02-15T12:27:55;15.10;93.70
8226;DHT22;4154;48.810;9.012;2024-02-15T12:30:22;15.10;94.20
8226;DHT22;4154;48.810;9.012;2024-02-15T12:32:52;15.20;93.90
8226;DHT22;4154;48.810;9.012;2024-02-15T12:35:22;15.20;93.90
8226;DHT22;4154;48.810;9.012;2024-02-15T12:40:30;15.20;94.30
8226;DHT22;4154;48.810;9.012;2024-02-15T12:42:58;15.20;94.30
8226;DHT22;4154;48.810;9.012;2024-02-15T12:45:26;15.20;94.30
8226;DHT22;4154;48.810;9.012;2024-02-15T12:47:54;15.20;94.40
8226;DHT22;4154;48.810;9.012;2024-02-15T12:50:21;15.30;94.50
8226;DHT22;4154;48.810;9.012;2024-02-15T12:52:51;15.30;94.30
8226;DHT22;4154;48.810;9.012;2024-02-15T12:55:25;15.30;94.50
8226;DHT22;4154;48.810;9.012;2024-02-15T12:57:52;15.30;94.00
8226;DHT22;4154;48.810;9.012;2024-02-15T13:00:22;15.40;94.00
8226;DHT22;4154;48.810;9.012;2024-02-15T13:02:54;15.40;94.30
8226;DHT22;4154;48.810;9.012;2024-02-15T13:05:22;15.40;94.50
8226;DHT22;4154;48.810;9.012;2024-02-15T13:07:50;15.40;94.20
8226;DHT22;4154;48.810;9.012;2024-02-15T13:10:17;15.50;94.30
8226;DHT22;4154;48.810;9.012;2024-02-15T13:12:44;15.50;94.60
8226;DHT22;4154;48.810;9.012;2024-02-15T13:15:15;15.50;94.20
8226;DHT22;4154;48.810;9.012;2024-02-15T13:17:49;15.50;94.30
8226;DHT22;4154;48.810;9.012;2024-02-15T13:20:16;15.50;94.50
8226;DHT22;4154;48.810;9.012;2024-02-15T13:22:45;15.50;94.50
8226;DHT22;4154;48.810;9.012;2024-02-15T13:25:13;15.50;94.70
8226;DHT22;4154;48.810;9.012;2024-02-15T13:27:42;15.90;99.90
8226;DHT22;4154;48.810;9.012;2024-02-15T13:30:08;15.60;94.40
8226;DHT22;4154;48.810;9.012;2024-02-15T13:32:36;15.70;94.30
8226;DHT22;4154;48.810;9.012;2024-02-15T13:35:07;15.70;94.60
8226;DHT22;4154;48.810;9.012;2024-02-15T13:37:41;15.80;99.90
8226;DHT22;4154;48.810;9.012;2024-02-15T13:40:13;15.80;94.90
8226;DHT22;4154;48.810;9.012;2024-02-15T13:42:43;15.80;94.80
8226;DHT22;4154;48.810;9.012;2024-02-15T13:45:15;15.80;94.70
8226;DHT22;4154;48.810;9.012;2024-02-15T13:47:44;15.80;98.70
8226;DHT22;4154;48.810;9.012;2024-02-15T13:50:13;15.90;93.30
8226;DHT22;4154;48.810;9.012;2024-02-15T13:55:13;15.90;93.40
8226;DHT22;4154;48.810;9.012;2024-02-15T13:57:41;15.90;98.90
8226;DHT22;4154;48.810;9.012;2024-02-15T14:00:11;15.90;93.90
8226;DHT22;4154;48.810;9.012;2024-02-15T14:02:40;16.00;93.90
8226;DHT22;4154;48.810;9.012;2024-02-15T14:05:07;15.90;93.80
8226;DHT22;4154;48.810;9.012;2024-02-15T14:07:34;16.10;98.60
8226;DHT22;4154;48.810;9.012;2024-02-15T14:10:07;16.00;93.50
8226;DHT22;4154;48.810;9.012;2024-02-15T14:12:33;16.00;93.10
8226;DHT22;4154;48.810;9.012;2024-02-15T14:15:00;16.10;93.40
8226;DHT22;4154;48.810;9.012;2024-02-15T14:19:53;16.00;93.20
8226;DHT22;4154;48.810;9.012;2024-02-15T14:22:19;16.00;93.90
8226;DHT22;4154;48.810;9.012;2024-02-15T14:24:49;16.00;93.90
8226;DHT22;4154;48.810;9.012;2024-02-15T14:27:15;16.00;93.60
8226;DHT22;4154;48.810;9.012;2024-02-15T14:29:41;16.00;93.40
8226;DHT22;4154;48.810;9.012;2024-02-15T14:32:26;16.00;93.60
8226;DHT22;4154;48.810;9.012;2024-02-15T14:35:10;16.00;93.80
8226;DHT22;4154;48.810;9.012;2024-02-15T14:37:36;15.90;98.40
8226;DHT22;4154;48.810;9.012;2024-02-15T14:40:06;16.00;93.60
8226;DHT22;4154;48.810;9.012;2024-02-15T14:42:32;16.10;93.80
8226;DHT22;4154;48.810;9.012;2024-02-15T14:44:59;16.10;93.80
8226;DHT22;4154;48.810;9.012;2024-02-15T14:47:25;16.10;98.40
8226;DHT22;4154;48.810;9.012;2024-02-15T14:49:51;16.10;93.60
8226;DHT22;4154;48.810;9.012;2024-02-15T14:52:17;16.10;93.70
8226;DHT22;4154;48.810;9.012;2024-02-15T14:54:43;16.10;93.80
8226;DHT22;4154;48.810;9.012;2024-02-15T14:57:09;16.20;93.40
8226;DHT22;4154;48.810;9.012;2024-02-15T14:59:34;16.20;93.80
8226;DHT22;4154;48.810;9.012;2024-02-15T15:02:01;16.20;93.70
8226;DHT22;4154;48.810;9.012;2024-02-15T15:04:37;16.20;93.60
8226;DHT22;4154;48.810;9.012;2024-02-15T15:10:07;16.20;93.40
8226;DHT22;4154;48.810;9.012;2024-02-15T15:12:53;16.20;93.90
8226;DHT22;4154;48.810;9.012;2024-02-15T15:15:19;16.10;93.90
8226;DHT22;4154;48.810;9.012;2024-02-15T15:17:48;16.10;93.70
8226;DHT22;4154;48.810;9.012;2024-02-15T15:20:14;16.00;94.10
8226;DHT22;4154;48.810;9.012;2024-02-15T15:22:42;16.00;94.10
8226;DHT22;4154;48.810;9.012;2024-02-15T15:25:08;16.00;94.30
8226;DHT22;4154;48.810;9.012;2024-02-15T15:27:35;15.80;99.30
8226;DHT22;4154;48.810;9.012;2024-02-15T15:30:03;16.00;94.50
8226;DHT22;4154;48.810;9.012;2024-02-15T15:32:29;16.00;94.50
8226;DHT22;4154;48.810;9.012;2024-02-15T15:37:21;15.90;94.40
8226;DHT22;4154;48.810;9.012;2024-02-15T15:39:48;15.80;94.80
8226;DHT22;4154;48.810;9.012;2024-02-15T15:42:15;15.90;94.80
8226;DHT22;4154;48.810;9.012;2024-02-15T15:44:41;15.80;94.80
8226;DHT22;4154;48.810;9.012;2024-02-15T15:47:07;15.80;95.10
8226;DHT22;4154;48.810;9.012;2024-02-15T15:49:32;15.70;94.90
8226;DHT22;4154;48.810;9.012;2024-02-15T15:52:00;15.80;95.10
8226;DHT22;4154;48.810;9.012;2024-02-15T15:54:25;15.80;95.60
8226;DHT22;4154;48.810;9.012;2024-02-15T15:56:51;15.70;95.80
8226;DHT22;4154;48.810;9.012;2024-02-15T15:59:18;15.70;96.00
8226;DHT22;4154;48.810;9.012;2024-02-15T16:01:48;15.70;96.10
8226;DHT22;4154;48.810;9.012;2024-02-15T16:04:14;15.70;96.20
8226;DHT22;4154;48.810;9.012;2024-02-15T16:06:40;15.60;96.30
8226;DHT22;4154;48.810;9.012;2024-02-15T16:09:06;15.60;96.40
8226;DHT22;4154;48.810;9.012;2024-02-15T16:11:34;15.50;96.30
8226;DHT22;4154;48.810;9.012;2024-02-15T16:14:00;15.40;96.40
8226;DHT22;4154;48.810;9.012;2024-02-15T16:16:28;15.40;96.50
8226;DHT22;4154;48.810;9.012;2024-02-15T16:18:54;15.30;96.50
8226;DHT22;4154;48.810;9.012;2024-02-15T16:21:20;15.20;96.60
8226;DHT22;4154;48.810;9.012;2024-02-15T16:23:45;15.10;96.50
8226;DHT22;4154;48.810;9.012;2024-02-15T16:26:11;15.10;96.60
8226;DHT22;4154;48.810;9.012;2024-02-15T16:28:37;15.10;96.30
8226;DHT22;4154;48.810;9.012;2024-02-15T16:31:03;15.00;96.40
8226;DHT22;4154;48.810;9.012;2024-02-15T16:33:29;15.00;96.40
8226;DHT22;4154;48.810;9.012;2024-02-15T16:35:55;14.90;96.40
8226;DHT22;4154;48.810;9.012;2024-02-15T16:38:22;14.90;96.50
8226;DHT22;4154;48.810;9.012;2024-02-15T16:40:48;16.70;97.30
8226;DHT22;4154;48.810;9.012;2024-02-15T16:43:15;14.80;96.50
8226;DHT22;4154;48.810;9.012;2024-02-15T16:45:40;14.80;96.50
8226;DHT22;4154;48.810;9.012;2024-02-15T16:48:07;14.80;96.60
8226;DHT22;4154;48.810;9.012;2024-02-15T16:50:33;14.70;96.80
8226;DHT22;4154;48.810;9.012;2024-02-15T16:53:00;14.70;96.50
8226;DHT22;4154;48.810;9.012;2024-02-15T16:55:26;14.70;96.60
8226;DHT22;4154;48.810;9.012;2024-02-15T16:57:57;14.70;96.70